sensor_id;sensor_type;location;lat;lon;timestamp;P1;durP1;ratioP1;P2;durP2;ratioP2
15110;SDS011;7656;51.954;7.998;2022-12-20T00:00:36;2.93;;;2.30;;
15110;SDS011;7656;51.954;7.998;2022-12-20T00:05:01;4.03;;;2.60;;
15110;SDS011;7656;51.954;7.998;2022-12-20T00:09:23;3.17;;;2.50;;
15110;SDS011;7656;51.954;7.998;2022-12-20T00:13:45;3.07;;;2.77;;
15110;SDS011;7656;51.954;7.998;2022-12-20T00:18:06;3.93;;;2.80;;
15110;SDS011;7656;51.954;7.998;2022-12-20T00:22:28;2.90;;;2.60;;
15110;SDS011;7656;51.954;7.998;2022-12-20T00:26:50;2.67;;;2.40;;
15110;SDS011;7656;51.954;7.998;2022-12-20T00:31:12;2.67;;;2.43;;
15110;SDS011;7656;51.954;7.998;2022-12-20T00:35:40;2.90;;;2.60;;
15110;SDS011;7656;51.954;7.998;2022-12-20T00:40:02;4.13;;;2.30;;
15110;SDS011;7656;51.954;7.998;2022-12-20T00:44:25;3.87;;;2.43;;
15110;SDS011;7656;51.954;7.998;2022-12-20T00:48:47;2.57;;;2.33;;
15110;SDS011;7656;51.954;7.998;2022-12-20T00:53:10;2.87;;;2.43;;
15110;SDS011;7656;51.954;7.998;2022-12-20T00:57:31;3.47;;;2.60;;
15110;SDS011;7656;51.954;7.998;2022-12-20T01:01:53;2.57;;;2.37;;
15110;SDS011;7656;51.954;7.998;2022-12-20T01:06:14;4.03;;;2.10;;
15110;SDS011;7656;51.954;7.998;2022-12-20T01:10:36;3.77;;;2.50;;
15110;SDS011;7656;51.954;7.998;2022-12-20T01:14:57;2.13;;;1.93;;
15110;SDS011;7656;51.954;7.998;2022-12-20T01:19:19;3.17;;;1.97;;
15110;SDS011;7656;51.954;7.998;2022-12-20T01:23:41;2.53;;;2.33;;
15110;SDS011;7656;51.954;7.998;2022-12-20T01:28:02;3.33;;;2.50;;
15110;SDS011;7656;51.954;7.998;2022-12-20T01:32:24;2.07;;;1.90;;
15110;SDS011;7656;51.954;7.998;2022-12-20T01:36:45;3.10;;;2.40;;
15110;SDS011;7656;51.954;7.998;2022-12-20T01:41:12;3.63;;;2.20;;
15110;SDS011;7656;51.954;7.998;2022-12-20T01:45:36;2.43;;;2.20;;
15110;SDS011;7656;51.954;7.998;2022-12-20T01:49:57;3.57;;;2.37;;
15110;SDS011;7656;51.954;7.998;2022-12-20T01:54:21;2.30;;;2.10;;
15110;SDS011;7656;51.954;7.998;2022-12-20T01:58:56;2.00;;;1.80;;
15110;SDS011;7656;51.954;7.998;2022-12-20T02:03:17;1.77;;;1.67;;
15110;SDS011;7656;51.954;7.998;2022-12-20T02:07:39;1.80;;;1.70;;
15110;SDS011;7656;51.954;7.998;2022-12-20T02:12:09;1.70;;;1.60;;
15110;SDS011;7656;51.954;7.998;2022-12-20T02:16:34;2.00;;;1.70;;
15110;SDS011;7656;51.954;7.998;2022-12-20T02:21:13;3.27;;;2.13;;
15110;SDS011;7656;51.954;7.998;2022-12-20T02:25:49;3.23;;;1.80;;
15110;SDS011;7656;51.954;7.998;2022-12-20T02:30:22;1.80;;;1.70;;
15110;SDS011;7656;51.954;7.998;2022-12-20T02:34:47;2.10;;;1.50;;
15110;SDS011;7656;51.954;7.998;2022-12-20T02:39:11;2.00;;;1.83;;
15110;SDS011;7656;51.954;7.998;2022-12-20T02:43:35;1.73;;;1.63;;
15110;SDS011;7656;51.954;7.998;2022-12-20T02:48:17;2.83;;;1.77;;
15110;SDS011;7656;51.954;7.998;2022-12-20T02:52:38;2.77;;;1.70;;
15110;SDS011;7656;51.954;7.998;2022-12-20T02:57:04;2.17;;;1.70;;
15110;SDS011;7656;51.954;7.998;2022-12-20T03:01:39;3.33;;;2.20;;
15110;SDS011;7656;51.954;7.998;2022-12-20T03:06:07;3.73;;;1.97;;
15110;SDS011;7656;51.954;7.998;2022-12-20T03:10:29;2.70;;;1.97;;
15110;SDS011;7656;51.954;7.998;2022-12-20T03:14:51;1.83;;;1.63;;
15110;SDS011;7656;51.954;7.998;2022-12-20T03:19:12;2.77;;;1.97;;
15110;SDS011;7656;51.954;7.998;2022-12-20T03:23:34;1.80;;;1.70;;
15110;SDS011;7656;51.954;7.998;2022-12-20T03:27:55;2.40;;;1.90;;
15110;SDS011;7656;51.954;7.998;2022-12-20T03:32:19;2.93;;;2.37;;
15110;SDS011;7656;51.954;7.998;2022-12-20T03:36:41;1.77;;;1.67;;
15110;SDS011;7656;51.954;7.998;2022-12-20T03:41:02;2.87;;;2.30;;
15110;SDS011;7656;51.954;7.998;2022-12-20T03:45:25;2.27;;;1.90;;
15110;SDS011;7656;51.954;7.998;2022-12-20T03:49:46;2.60;;;1.90;;
15110;SDS011;7656;51.954;7.998;2022-12-20T03:54:08;1.77;;;1.67;;
15110;SDS011;7656;51.954;7.998;2022-12-20T03:58:48;2.23;;;1.70;;
15110;SDS011;7656;51.954;7.998;2022-12-20T04:03:10;1.83;;;1.70;;
15110;SDS011;7656;51.954;7.998;2022-12-20T04:07:32;2.93;;;2.07;;
15110;SDS011;7656;51.954;7.998;2022-12-20T04:11:54;2.07;;;1.87;;
15110;SDS011;7656;51.954;7.998;2022-12-20T04:16:16;2.40;;;2.03;;
15110;SDS011;7656;51.954;7.998;2022-12-20T04:20:42;4.67;;;2.37;;
15110;SDS011;7656;51.954;7.998;2022-12-20T04:25:13;2.30;;;2.10;;
15110;SDS011;7656;51.954;7.998;2022-12-20T04:29:36;2.57;;;2.20;;
15110;SDS011;7656;51.954;7.998;2022-12-20T04:34:01;2.47;;;2.27;;
15110;SDS011;7656;51.954;7.998;2022-12-20T04:38:25;3.93;;;2.10;;
15110;SDS011;7656;51.954;7.998;2022-12-20T04:42:47;3.10;;;2.00;;
15110;SDS011;7656;51.954;7.998;2022-12-20T04:47:10;2.73;;;2.40;;
15110;SDS011;7656;51.954;7.998;2022-12-20T04:51:32;2.30;;;2.20;;
15110;SDS011;7656;51.954;7.998;2022-12-20T04:55:54;2.40;;;2.30;;
15110;SDS011;7656;51.954;7.998;2022-12-20T05:00:17;2.33;;;2.13;;
15110;SDS011;7656;51.954;7.998;2022-12-20T05:04:45;3.43;;;2.40;;
15110;SDS011;7656;51.954;7.998;2022-12-20T05:09:07;3.00;;;2.40;;
15110;SDS011;7656;51.954;7.998;2022-12-20T05:13:28;2.70;;;2.03;;
15110;SDS011;7656;51.954;7.998;2022-12-20T05:17:50;7.53;;;2.33;;
15110;SDS011;7656;51.954;7.998;2022-12-20T05:22:12;3.10;;;2.20;;
15110;SDS011;7656;51.954;7.998;2022-12-20T05:26:59;2.73;;;2.37;;
15110;SDS011;7656;51.954;7.998;2022-12-20T05:31:21;3.70;;;2.20;;
15110;SDS011;7656;51.954;7.998;2022-12-20T05:35:43;2.30;;;2.10;;
15110;SDS011;7656;51.954;7.998;2022-12-20T05:40:07;3.23;;;2.47;;
15110;SDS011;7656;51.954;7.998;2022-12-20T05:44:31;2.70;;;2.50;;
15110;SDS011;7656;51.954;7.998;2022-12-20T05:48:53;2.70;;;2.50;;
15110;SDS011;7656;51.954;7.998;2022-12-20T05:53:15;3.17;;;2.47;;
15110;SDS011;7656;51.954;7.998;2022-12-20T05:57:42;2.57;;;2.30;;
15110;SDS011;7656;51.954;7.998;2022-12-20T06:02:05;3.60;;;2.93;;
15110;SDS011;7656;51.954;7.998;2022-12-20T06:06:27;4.87;;;2.80;;
15110;SDS011;7656;51.954;7.998;2022-12-20T06:10:49;5.00;;;3.20;;
15110;SDS011;7656;51.954;7.998;2022-12-20T06:15:11;2.93;;;2.40;;
15110;SDS011;7656;51.954;7.998;2022-12-20T06:19:35;4.77;;;2.23;;
15110;SDS011;7656;51.954;7.998;2022-12-20T06:24:01;2.50;;;2.30;;
15110;SDS011;7656;51.954;7.998;2022-12-20T06:28:24;2.33;;;2.13;;
15110;SDS011;7656;51.954;7.998;2022-12-20T06:32:46;2.70;;;2.50;;
15110;SDS011;7656;51.954;7.998;2022-12-20T06:37:08;3.73;;;2.60;;
15110;SDS011;7656;51.954;7.998;2022-12-20T06:41:31;3.17;;;2.87;;
15110;SDS011;7656;51.954;7.998;2022-12-20T06:45:53;4.73;;;2.43;;
15110;SDS011;7656;51.954;7.998;2022-12-20T06:50:15;3.03;;;2.73;;
15110;SDS011;7656;51.954;7.998;2022-12-20T06:54:36;3.30;;;2.40;;
15110;SDS011;7656;51.954;7.998;2022-12-20T06:58:58;3.43;;;2.63;;
15110;SDS011;7656;51.954;7.998;2022-12-20T07:03:20;2.80;;;2.33;;
15110;SDS011;7656;51.954;7.998;2022-12-20T07:07:41;3.80;;;3.13;;
15110;SDS011;7656;51.954;7.998;2022-12-20T07:12:03;4.60;;;2.73;;
15110;SDS011;7656;51.954;7.998;2022-12-20T07:16:25;3.17;;;2.90;;
15110;SDS011;7656;51.954;7.998;2022-12-20T07:20:47;4.33;;;2.60;;
15110;SDS011;7656;51.954;7.998;2022-12-20T07:25:09;2.37;;;2.20;;
15110;SDS011;7656;51.954;7.998;2022-12-20T07:29:30;2.70;;;2.50;;
15110;SDS011;7656;51.954;7.998;2022-12-20T07:33:52;2.73;;;2.50;;
15110;SDS011;7656;51.954;7.998;2022-12-20T07:38:13;5.20;;;2.60;;
15110;SDS011;7656;51.954;7.998;2022-12-20T07:42:35;2.83;;;2.50;;
15110;SDS011;7656;51.954;7.998;2022-12-20T07:46:56;4.13;;;2.77;;
15110;SDS011;7656;51.954;7.998;2022-12-20T07:51:28;3.10;;;2.80;;
15110;SDS011;7656;51.954;7.998;2022-12-20T07:55:54;3.33;;;2.63;;
15110;SDS011;7656;51.954;7.998;2022-12-20T08:00:16;5.43;;;3.33;;
15110;SDS011;7656;51.954;7.998;2022-12-20T08:04:38;3.53;;;3.00;;
15110;SDS011;7656;51.954;7.998;2022-12-20T08:09:02;4.10;;;2.83;;
15110;SDS011;7656;51.954;7.998;2022-12-20T08:13:24;8.17;;;3.50;;
15110;SDS011;7656;51.954;7.998;2022-12-20T08:17:46;5.87;;;3.33;;
15110;SDS011;7656;51.954;7.998;2022-12-20T08:22:08;3.10;;;2.80;;
15110;SDS011;7656;51.954;7.998;2022-12-20T08:26:30;3.30;;;3.00;;
15110;SDS011;7656;51.954;7.998;2022-12-20T08:30:51;4.33;;;2.77;;
15110;SDS011;7656;51.954;7.998;2022-12-20T08:35:13;2.97;;;2.67;;
15110;SDS011;7656;51.954;7.998;2022-12-20T08:39:35;2.43;;;2.17;;
15110;SDS011;7656;51.954;7.998;2022-12-20T08:43:57;4.53;;;2.90;;
15110;SDS011;7656;51.954;7.998;2022-12-20T08:48:18;2.90;;;2.47;;
15110;SDS011;7656;51.954;7.998;2022-12-20T08:52:40;5.73;;;2.63;;
15110;SDS011;7656;51.954;7.998;2022-12-20T08:57:01;5.10;;;2.83;;
15110;SDS011;7656;51.954;7.998;2022-12-20T09:01:23;2.40;;;2.20;;
15110;SDS011;7656;51.954;7.998;2022-12-20T09:05:46;2.97;;;2.67;;
15110;SDS011;7656;51.954;7.998;2022-12-20T09:10:08;3.20;;;2.90;;
15110;SDS011;7656;51.954;7.998;2022-12-20T09:14:30;4.57;;;2.90;;
15110;SDS011;7656;51.954;7.998;2022-12-20T09:18:52;4.43;;;2.73;;
15110;SDS011;7656;51.954;7.998;2022-12-20T09:23:15;3.07;;;2.70;;
15110;SDS011;7656;51.954;7.998;2022-12-20T09:27:36;3.93;;;2.60;;
15110;SDS011;7656;51.954;7.998;2022-12-20T09:31:58;4.23;;;2.87;;
15110;SDS011;7656;51.954;7.998;2022-12-20T09:36:21;2.57;;;2.37;;
15110;SDS011;7656;51.954;7.998;2022-12-20T09:40:46;3.03;;;2.17;;
15110;SDS011;7656;51.954;7.998;2022-12-20T09:45:15;2.57;;;2.20;;
15110;SDS011;7656;51.954;7.998;2022-12-20T09:49:48;3.47;;;1.90;;
15110;SDS011;7656;51.954;7.998;2022-12-20T09:59:07;2.40;;;1.70;;
15110;SDS011;7656;51.954;7.998;2022-12-20T10:03:35;4.03;;;2.47;;
15110;SDS011;7656;51.954;7.998;2022-12-20T10:08:00;2.90;;;2.40;;
15110;SDS011;7656;51.954;7.998;2022-12-20T10:12:45;3.67;;;2.33;;
15110;SDS011;7656;51.954;7.998;2022-12-20T10:22:12;3.23;;;2.60;;
15110;SDS011;7656;51.954;7.998;2022-12-20T10:26:51;2.60;;;2.27;;
15110;SDS011;7656;51.954;7.998;2022-12-20T10:31:13;2.80;;;2.37;;
15110;SDS011;7656;51.954;7.998;2022-12-20T10:35:36;2.97;;;2.20;;
15110;SDS011;7656;51.954;7.998;2022-12-20T10:39:59;2.40;;;2.20;;
15110;SDS011;7656;51.954;7.998;2022-12-20T10:44:25;2.10;;;1.90;;
15110;SDS011;7656;51.954;7.998;2022-12-20T10:48:48;2.30;;;2.00;;
15110;SDS011;7656;51.954;7.998;2022-12-20T10:57:42;2.63;;;2.43;;
15110;SDS011;7656;51.954;7.998;2022-12-20T11:02:24;4.47;;;2.60;;
15110;SDS011;7656;51.954;7.998;2022-12-20T11:06:46;2.57;;;2.30;;
15110;SDS011;7656;51.954;7.998;2022-12-20T11:11:15;3.40;;;2.30;;
15110;SDS011;7656;51.954;7.998;2022-12-20T11:15:46;3.33;;;2.07;;
15110;SDS011;7656;51.954;7.998;2022-12-20T11:34:06;3.07;;;1.97;;
15110;SDS011;7656;51.954;7.998;2022-12-20T11:43:04;3.37;;;2.00;;
15110;SDS011;7656;51.954;7.998;2022-12-20T11:52:09;2.20;;;2.10;;
15110;SDS011;7656;51.954;7.998;2022-12-20T11:56:34;1.93;;;1.80;;
15110;SDS011;7656;51.954;7.998;2022-12-20T12:01:13;1.73;;;1.63;;
15110;SDS011;7656;51.954;7.998;2022-12-20T12:10:43;3.37;;;2.83;;
15110;SDS011;7656;51.954;7.998;2022-12-20T12:15:35;2.07;;;1.77;;
15110;SDS011;7656;51.954;7.998;2022-12-20T12:25:03;2.30;;;1.73;;
15110;SDS011;7656;51.954;7.998;2022-12-20T12:29:31;2.30;;;1.80;;
15110;SDS011;7656;51.954;7.998;2022-12-20T12:34:02;2.53;;;1.83;;
15110;SDS011;7656;51.954;7.998;2022-12-20T12:38:55;2.30;;;2.10;;
15110;SDS011;7656;51.954;7.998;2022-12-20T12:48:22;2.13;;;1.93;;
15110;SDS011;7656;51.954;7.998;2022-12-20T12:52:55;2.57;;;1.47;;
15110;SDS011;7656;51.954;7.998;2022-12-20T12:57:23;1.90;;;1.80;;
15110;SDS011;7656;51.954;7.998;2022-12-20T13:10:58;2.00;;;1.77;;
15110;SDS011;7656;51.954;7.998;2022-12-20T13:19:49;3.13;;;1.90;;
15110;SDS011;7656;51.954;7.998;2022-12-20T13:24:29;1.90;;;1.40;;
15110;SDS011;7656;51.954;7.998;2022-12-20T13:29:20;2.87;;;1.70;;
15110;SDS011;7656;51.954;7.998;2022-12-20T13:33:49;2.17;;;1.97;;
15110;SDS011;7656;51.954;7.998;2022-12-20T13:42:33;5.03;;;2.10;;
15110;SDS011;7656;51.954;7.998;2022-12-20T13:47:02;5.43;;;1.90;;
15110;SDS011;7656;51.954;7.998;2022-12-20T13:51:35;2.30;;;1.90;;
15110;SDS011;7656;51.954;7.998;2022-12-20T13:55:57;2.47;;;1.87;;
15110;SDS011;7656;51.954;7.998;2022-12-20T14:00:22;1.70;;;1.60;;
15110;SDS011;7656;51.954;7.998;2022-12-20T14:04:45;2.83;;;1.87;;
15110;SDS011;7656;51.954;7.998;2022-12-20T14:09:25;2.33;;;1.90;;
15110;SDS011;7656;51.954;7.998;2022-12-20T14:13:59;2.67;;;1.90;;
15110;SDS011;7656;51.954;7.998;2022-12-20T14:18:23;4.33;;;1.77;;
15110;SDS011;7656;51.954;7.998;2022-12-20T14:22:50;2.03;;;1.80;;
15110;SDS011;7656;51.954;7.998;2022-12-20T14:27:16;2.00;;;1.87;;
15110;SDS011;7656;51.954;7.998;2022-12-20T14:31:39;2.43;;;2.13;;
15110;SDS011;7656;51.954;7.998;2022-12-20T14:36:09;2.37;;;1.90;;
15110;SDS011;7656;51.954;7.998;2022-12-20T14:40:40;2.03;;;1.83;;
15110;SDS011;7656;51.954;7.998;2022-12-20T14:49:30;2.10;;;1.90;;
15110;SDS011;7656;51.954;7.998;2022-12-20T14:53:53;4.17;;;2.20;;
15110;SDS011;7656;51.954;7.998;2022-12-20T14:58:27;2.70;;;2.00;;
15110;SDS011;7656;51.954;7.998;2022-12-20T15:07:28;3.80;;;2.37;;
15110;SDS011;7656;51.954;7.998;2022-12-20T15:11:53;2.33;;;2.00;;
15110;SDS011;7656;51.954;7.998;2022-12-20T15:16:17;3.10;;;2.40;;
15110;SDS011;7656;51.954;7.998;2022-12-20T15:20:42;2.77;;;2.57;;
15110;SDS011;7656;51.954;7.998;2022-12-20T15:25:23;3.40;;;2.30;;
15110;SDS011;7656;51.954;7.998;2022-12-20T15:29:46;3.27;;;2.13;;
15110;SDS011;7656;51.954;7.998;2022-12-20T15:34:12;4.67;;;2.67;;
15110;SDS011;7656;51.954;7.998;2022-12-20T15:38:47;5.07;;;2.40;;
15110;SDS011;7656;51.954;7.998;2022-12-20T15:43:11;4.40;;;2.40;;
15110;SDS011;7656;51.954;7.998;2022-12-20T15:47:33;3.67;;;2.20;;
15110;SDS011;7656;51.954;7.998;2022-12-20T15:51:55;4.53;;;2.80;;
15110;SDS011;7656;51.954;7.998;2022-12-20T15:56:18;4.93;;;2.57;;
15110;SDS011;7656;51.954;7.998;2022-12-20T16:00:43;3.70;;;2.50;;
15110;SDS011;7656;51.954;7.998;2022-12-20T16:05:05;4.40;;;2.70;;
15110;SDS011;7656;51.954;7.998;2022-12-20T16:09:28;5.93;;;2.23;;
15110;SDS011;7656;51.954;7.998;2022-12-20T16:13:50;5.40;;;2.80;;
15110;SDS011;7656;51.954;7.998;2022-12-20T16:18:11;3.23;;;2.77;;
15110;SDS011;7656;51.954;7.998;2022-12-20T16:22:33;5.63;;;2.60;;
15110;SDS011;7656;51.954;7.998;2022-12-20T16:26:54;3.93;;;2.67;;
15110;SDS011;7656;51.954;7.998;2022-12-20T16:31:20;2.70;;;2.50;;
15110;SDS011;7656;51.954;7.998;2022-12-20T16:35:44;3.17;;;2.43;;
15110;SDS011;7656;51.954;7.998;2022-12-20T16:40:06;3.90;;;2.80;;
15110;SDS011;7656;51.954;7.998;2022-12-20T16:44:28;4.30;;;2.83;;
15110;SDS011;7656;51.954;7.998;2022-12-20T16:48:49;3.07;;;2.87;;
15110;SDS011;7656;51.954;7.998;2022-12-20T16:53:12;3.70;;;3.27;;
15110;SDS011;7656;51.954;7.998;2022-12-20T16:57:34;3.33;;;2.93;;
15110;SDS011;7656;51.954;7.998;2022-12-20T17:01:57;3.13;;;2.83;;
15110;SDS011;7656;51.954;7.998;2022-12-20T17:06:18;6.27;;;3.17;;
15110;SDS011;7656;51.954;7.998;2022-12-20T17:10:40;6.47;;;3.30;;
15110;SDS011;7656;51.954;7.998;2022-12-20T17:15:01;5.57;;;3.73;;
15110;SDS011;7656;51.954;7.998;2022-12-20T17:19:24;3.93;;;3.60;;
15110;SDS011;7656;51.954;7.998;2022-12-20T17:23:46;7.67;;;4.27;;
15110;SDS011;7656;51.954;7.998;2022-12-20T17:28:09;6.33;;;3.93;;
15110;SDS011;7656;51.954;7.998;2022-12-20T17:32:30;5.00;;;3.77;;
15110;SDS011;7656;51.954;7.998;2022-12-20T17:36:53;3.97;;;3.57;;
15110;SDS011;7656;51.954;7.998;2022-12-20T17:45:44;4.77;;;3.67;;
15110;SDS011;7656;51.954;7.998;2022-12-20T17:50:07;5.03;;;3.80;;
15110;SDS011;7656;51.954;7.998;2022-12-20T17:54:29;3.57;;;3.20;;
15110;SDS011;7656;51.954;7.998;2022-12-20T17:58:50;5.50;;;3.27;;
15110;SDS011;7656;51.954;7.998;2022-12-20T18:03:13;4.53;;;3.60;;
15110;SDS011;7656;51.954;7.998;2022-12-20T18:07:34;4.63;;;3.53;;
15110;SDS011;7656;51.954;7.998;2022-12-20T18:11:56;3.70;;;3.40;;
15110;SDS011;7656;51.954;7.998;2022-12-20T18:16:19;8.97;;;4.90;;
15110;SDS011;7656;51.954;7.998;2022-12-20T18:20:41;6.30;;;3.77;;
15110;SDS011;7656;51.954;7.998;2022-12-20T18:25:03;5.80;;;3.73;;
15110;SDS011;7656;51.954;7.998;2022-12-20T18:29:28;5.30;;;4.40;;
15110;SDS011;7656;51.954;7.998;2022-12-20T18:33:51;7.47;;;4.70;;
15110;SDS011;7656;51.954;7.998;2022-12-20T18:38:13;8.23;;;4.80;;
15110;SDS011;7656;51.954;7.998;2022-12-20T18:42:35;5.30;;;4.70;;
15110;SDS011;7656;51.954;7.998;2022-12-20T18:46:57;5.60;;;5.10;;
15110;SDS011;7656;51.954;7.998;2022-12-20T18:51:19;4.90;;;4.43;;
15110;SDS011;7656;51.954;7.998;2022-12-20T18:55:42;77.47;;;8.87;;
15110;SDS011;7656;51.954;7.998;2022-12-20T19:00:04;4.10;;;3.80;;
15110;SDS011;7656;51.954;7.998;2022-12-20T19:04:28;5.33;;;4.83;;
15110;SDS011;7656;51.954;7.998;2022-12-20T19:08:49;5.83;;;4.63;;
15110;SDS011;7656;51.954;7.998;2022-12-20T19:13:11;9.87;;;5.50;;
15110;SDS011;7656;51.954;7.998;2022-12-20T19:17:33;7.70;;;5.07;;
15110;SDS011;7656;51.954;7.998;2022-12-20T19:21:54;5.83;;;4.80;;
15110;SDS011;7656;51.954;7.998;2022-12-20T19:26:16;7.13;;;4.60;;
15110;SDS011;7656;51.954;7.998;2022-12-20T19:30:39;145.70;;;12.47;;
15110;SDS011;7656;51.954;7.998;2022-12-20T19:35:01;32.27;;;5.90;;
15110;SDS011;7656;51.954;7.998;2022-12-20T19:39:22;12.43;;;4.87;;
15110;SDS011;7656;51.954;7.998;2022-12-20T19:43:47;86.23;;;9.57;;
15110;SDS011;7656;51.954;7.998;2022-12-20T19:48:10;10.10;;;6.33;;
15110;SDS011;7656;51.954;7.998;2022-12-20T19:52:32;6.63;;;5.03;;
15110;SDS011;7656;51.954;7.998;2022-12-20T19:56:53;8.27;;;5.27;;
15110;SDS011;7656;51.954;7.998;2022-12-20T20:01:14;11.07;;;7.63;;
15110;SDS011;7656;51.954;7.998;2022-12-20T20:05:37;10.83;;;7.80;;
15110;SDS011;7656;51.954;7.998;2022-12-20T20:09:58;11.30;;;7.30;;
15110;SDS011;7656;51.954;7.998;2022-12-20T20:14:19;9.70;;;6.27;;
15110;SDS011;7656;51.954;7.998;2022-12-20T20:18:40;7.97;;;6.10;;
15110;SDS011;7656;51.954;7.998;2022-12-20T20:23:01;7.40;;;5.67;;
15110;SDS011;7656;51.954;7.998;2022-12-20T20:27:22;6.63;;;5.93;;
15110;SDS011;7656;51.954;7.998;2022-12-20T20:31:43;6.73;;;5.80;;
15110;SDS011;7656;51.954;7.998;2022-12-20T20:36:04;5.67;;;4.67;;
15110;SDS011;7656;51.954;7.998;2022-12-20T20:40:26;6.27;;;5.10;;
15110;SDS011;7656;51.954;7.998;2022-12-20T20:44:47;8.23;;;5.30;;
15110;SDS011;7656;51.954;7.998;2022-12-20T20:49:08;6.63;;;5.33;;
15110;SDS011;7656;51.954;7.998;2022-12-20T20:53:29;6.17;;;4.50;;
15110;SDS011;7656;51.954;7.998;2022-12-20T20:57:51;6.10;;;4.33;;
15110;SDS011;7656;51.954;7.998;2022-12-20T21:02:12;8.43;;;5.20;;
15110;SDS011;7656;51.954;7.998;2022-12-20T21:06:34;4.30;;;3.80;;
15110;SDS011;7656;51.954;7.998;2022-12-20T21:10:56;6.07;;;4.70;;
15110;SDS011;7656;51.954;7.998;2022-12-20T21:15:17;4.97;;;4.47;;
15110;SDS011;7656;51.954;7.998;2022-12-20T21:19:39;5.37;;;4.17;;
15110;SDS011;7656;51.954;7.998;2022-12-20T21:24:00;5.47;;;4.13;;
15110;SDS011;7656;51.954;7.998;2022-12-20T21:28:21;4.63;;;4.07;;
15110;SDS011;7656;51.954;7.998;2022-12-20T21:32:42;5.10;;;3.97;;
15110;SDS011;7656;51.954;7.998;2022-12-20T21:37:03;7.10;;;4.87;;
15110;SDS011;7656;51.954;7.998;2022-12-20T21:41:26;4.77;;;4.13;;
15110;SDS011;7656;51.954;7.998;2022-12-20T21:45:49;7.30;;;4.50;;
15110;SDS011;7656;51.954;7.998;2022-12-20T21:50:10;5.20;;;4.13;;
15110;SDS011;7656;51.954;7.998;2022-12-20T21:54:33;5.53;;;4.80;;
15110;SDS011;7656;51.954;7.998;2022-12-20T21:58:55;5.30;;;4.80;;
15110;SDS011;7656;51.954;7.998;2022-12-20T22:03:16;5.93;;;4.80;;
15110;SDS011;7656;51.954;7.998;2022-12-20T22:07:38;7.57;;;4.97;;
15110;SDS011;7656;51.954;7.998;2022-12-20T22:11:59;5.30;;;4.77;;
15110;SDS011;7656;51.954;7.998;2022-12-20T22:16:21;6.17;;;5.47;;
15110;SDS011;7656;51.954;7.998;2022-12-20T22:20:45;6.37;;;4.93;;
15110;SDS011;7656;51.954;7.998;2022-12-20T22:25:06;7.77;;;5.70;;
15110;SDS011;7656;51.954;7.998;2022-12-20T22:29:28;6.43;;;5.30;;
15110;SDS011;7656;51.954;7.998;2022-12-20T22:33:49;6.73;;;5.50;;
15110;SDS011;7656;51.954;7.998;2022-12-20T22:38:12;6.77;;;5.37;;
15110;SDS011;7656;51.954;7.998;2022-12-20T22:42:33;7.13;;;5.77;;
15110;SDS011;7656;51.954;7.998;2022-12-20T22:46:54;8.20;;;5.33;;
15110;SDS011;7656;51.954;7.998;2022-12-20T22:51:20;7.37;;;5.30;;
15110;SDS011;7656;51.954;7.998;2022-12-20T22:55:44;6.20;;;5.57;;
15110;SDS011;7656;51.954;7.998;2022-12-20T23:00:06;5.77;;;5.27;;
15110;SDS011;7656;51.954;7.998;2022-12-20T23:04:32;5.80;;;5.20;;
15110;SDS011;7656;51.954;7.998;2022-12-20T23:08:53;6.13;;;5.13;;
15110;SDS011;7656;51.954;7.998;2022-12-20T23:13:14;7.90;;;5.93;;
15110;SDS011;7656;51.954;7.998;2022-12-20T23:17:54;6.27;;;5.53;;
15110;SDS011;7656;51.954;7.998;2022-12-20T23:22:16;7.23;;;6.23;;
15110;SDS011;7656;51.954;7.998;2022-12-20T23:26:56;8.33;;;6.20;;
15110;SDS011;7656;51.954;7.998;2022-12-20T23:31:17;6.10;;;5.50;;
15110;SDS011;7656;51.954;7.998;2022-12-20T23:35:38;7.83;;;6.23;;
15110;SDS011;7656;51.954;7.998;2022-12-20T23:39:59;6.50;;;5.80;;
15110;SDS011;7656;51.954;7.998;2022-12-20T23:44:20;7.27;;;6.40;;
15110;SDS011;7656;51.954;7.998;2022-12-20T23:48:41;6.60;;;6.00;;
15110;SDS011;7656;51.954;7.998;2022-12-20T23:53:03;7.23;;;6.53;;
15110;SDS011;7656;51.954;7.998;2022-12-20T23:57:24;8.10;;;6.40;;
